<?xml version="1.0" encoding="UTF-8" standalone="no" ?>
<gpx xmlns="http://www.topografix.com/GPX/1/1" xmlns:xsi="http://www.w3.org/2001/XMLSchema-instance" xsi:schemaLocation="http://www.topografix.com/GPX/1/1 http://www.topografix.com/GPX/1/1/gpx.xsd" version="1.1" creator="VisuGPX - https://www.visugpx.com">
  <metadata>
    <name>Vacances 2021</name>
  </metadata>
  <trk>
    <name><![CDATA[Journal actif: 2021-07-30 17:32]]></name>
    <trkseg>
      <trkpt lat="48.70953" lon="-1.51342">
        <ele>7.35</ele>
        <time>2021-07-30T19:32:35Z</time>
      </trkpt>
      <trkpt lat="48.70953" lon="-1.51342">
        <ele>6.39</ele>
        <time>2021-07-30T19:33:06Z</time>
      </trkpt>
      <trkpt lat="48.70953" lon="-1.51342">
        <ele>7.83</ele>
        <time>2021-07-30T19:33:22Z</time>
      </trkpt>
      <trkpt lat="48.70953" lon="-1.51342">
        <ele>8.79</ele>
        <time>2021-07-30T19:33:38Z</time>
      </trkpt>
      <trkpt lat="48.70953" lon="-1.51342">
        <ele>8.79</ele>
        <time>2021-07-30T19:33:40Z</time>
      </trkpt>
      <trkpt lat="48.70954" lon="-1.51338">
        <ele>8.79</ele>
        <time>2021-07-30T19:33:41Z</time>
      </trkpt>
      <trkpt lat="48.70954" lon="-1.51338">
        <ele>8.79</ele>
        <time>2021-07-30T19:33:42Z</time>
      </trkpt>
      <trkpt lat="48.70955" lon="-1.51334">
        <ele>8.79</ele>
        <time>2021-07-30T19:33:43Z</time>
      </trkpt>
      <trkpt lat="48.70956" lon="-1.51328">
        <ele>8.31</ele>
        <time>2021-07-30T19:33:47Z</time>
      </trkpt>
      <trkpt lat="48.70956" lon="-1.51326">
        <ele>8.31</ele>
        <time>2021-07-30T19:33:48Z</time>
      </trkpt>
      <trkpt lat="48.70967" lon="-1.51278">
        <ele>7.83</ele>
        <time>2021-07-30T19:33:58Z</time>
      </trkpt>
      <trkpt lat="48.71" lon="-1.51119">
        <ele>5.91</ele>
        <time>2021-07-30T19:34:10Z</time>
      </trkpt>
      <trkpt lat="48.71034" lon="-1.50916">
        <ele>5.42</ele>
        <time>2021-07-30T19:34:23Z</time>
      </trkpt>
      <trkpt lat="48.7108" lon="-1.50711">
        <ele>6.39</ele>
        <time>2021-07-30T19:34:35Z</time>
      </trkpt>
      <trkpt lat="48.71097" lon="-1.50619">
        <ele>5.91</ele>
        <time>2021-07-30T19:34:40Z</time>
      </trkpt>
      <trkpt lat="48.71101" lon="-1.50603">
        <ele>5.91</ele>
        <time>2021-07-30T19:34:41Z</time>
      </trkpt>
      <trkpt lat="48.71106" lon="-1.50588">
        <ele>4.94</ele>
        <time>2021-07-30T19:34:42Z</time>
      </trkpt>
      <trkpt lat="48.71118" lon="-1.50568">
        <ele>4.94</ele>
        <time>2021-07-30T19:34:43Z</time>
      </trkpt>
      <trkpt lat="48.71118" lon="-1.50568">
        <ele>3.98</ele>
        <time>2021-07-30T19:34:44Z</time>
      </trkpt>
      <trkpt lat="48.71127" lon="-1.5056">
        <ele>2.54</ele>
        <time>2021-07-30T19:34:45Z</time>
      </trkpt>
      <trkpt lat="48.71136" lon="-1.50554">
        <ele>3.02</ele>
        <time>2021-07-30T19:34:46Z</time>
      </trkpt>
      <trkpt lat="48.71157" lon="-1.50542">
        <ele>3.02</ele>
        <time>2021-07-30T19:34:47Z</time>
      </trkpt>
      <trkpt lat="48.71157" lon="-1.50542">
        <ele>3.98</ele>
        <time>2021-07-30T19:34:48Z</time>
      </trkpt>
      <trkpt lat="48.71255" lon="-1.50509">
        <ele>4.46</ele>
        <time>2021-07-30T19:34:57Z</time>
      </trkpt>
      <trkpt lat="48.71266" lon="-1.50506">
        <ele>4.94</ele>
        <time>2021-07-30T19:34:58Z</time>
      </trkpt>
      <trkpt lat="48.71355" lon="-1.50515">
        <ele>4.94</ele>
        <time>2021-07-30T19:35:05Z</time>
      </trkpt>
      <trkpt lat="48.71355" lon="-1.50515">
        <ele>5.42</ele>
        <time>2021-07-30T19:35:06Z</time>
      </trkpt>
      <trkpt lat="48.71363" lon="-1.5051">
        <ele>6.39</ele>
        <time>2021-07-30T19:35:07Z</time>
      </trkpt>
      <trkpt lat="48.7137" lon="-1.50505">
        <ele>6.87</ele>
        <time>2021-07-30T19:35:08Z</time>
      </trkpt>
      <trkpt lat="48.71372" lon="-1.50497">
        <ele>8.31</ele>
        <time>2021-07-30T19:35:09Z</time>
      </trkpt>
      <trkpt lat="48.71375" lon="-1.50486">
        <ele>8.79</ele>
        <time>2021-07-30T19:35:10Z</time>
      </trkpt>
      <trkpt lat="48.71378" lon="-1.50476">
        <ele>9.75</ele>
        <time>2021-07-30T19:35:11Z</time>
      </trkpt>
      <trkpt lat="48.71378" lon="-1.50465">
        <ele>10.71</ele>
        <time>2021-07-30T19:35:12Z</time>
      </trkpt>
      <trkpt lat="48.71375" lon="-1.50439">
        <ele>11.19</ele>
        <time>2021-07-30T19:35:13Z</time>
      </trkpt>
      <trkpt lat="48.71375" lon="-1.50439">
        <ele>12.15</ele>
        <time>2021-07-30T19:35:14Z</time>
      </trkpt>
      <trkpt lat="48.71356" lon="-1.50286">
        <ele>22.25</ele>
        <time>2021-07-30T19:35:24Z</time>
      </trkpt>
      <trkpt lat="48.71353" lon="-1.5027">
        <ele>22.73</ele>
        <time>2021-07-30T19:35:25Z</time>
      </trkpt>
      <trkpt lat="48.71349" lon="-1.5026">
        <ele>25.13</ele>
        <time>2021-07-30T19:35:26Z</time>
      </trkpt>
      <trkpt lat="48.71344" lon="-1.50249">
        <ele>26.57</ele>
        <time>2021-07-30T19:35:27Z</time>
      </trkpt>
      <trkpt lat="48.71338" lon="-1.5024">
        <ele>28.02</ele>
        <time>2021-07-30T19:35:28Z</time>
      </trkpt>
      <trkpt lat="48.71321" lon="-1.50215">
        <ele>30.42</ele>
        <time>2021-07-30T19:35:31Z</time>
      </trkpt>
      <trkpt lat="48.71316" lon="-1.50207">
        <ele>30.42</ele>
        <time>2021-07-30T19:35:32Z</time>
      </trkpt>
      <trkpt lat="48.71311" lon="-1.50198">
        <ele>30.9</ele>
        <time>2021-07-30T19:35:33Z</time>
      </trkpt>
      <trkpt lat="48.71307" lon="-1.50187">
        <ele>30.9</ele>
        <time>2021-07-30T19:35:34Z</time>
      </trkpt>
      <trkpt lat="48.71303" lon="-1.50174">
        <ele>31.38</ele>
        <time>2021-07-30T19:35:35Z</time>
      </trkpt>
      <trkpt lat="48.71263" lon="-1.50009">
        <ele>30.9</ele>
        <time>2021-07-30T19:35:46Z</time>
      </trkpt>
      <trkpt lat="48.71254" lon="-1.49948">
        <ele>33.78</ele>
        <time>2021-07-30T19:35:51Z</time>
      </trkpt>
      <trkpt lat="48.71254" lon="-1.4994">
        <ele>34.26</ele>
        <time>2021-07-30T19:35:52Z</time>
      </trkpt>
      <trkpt lat="48.71254" lon="-1.49936">
        <ele>34.74</ele>
        <time>2021-07-30T19:35:53Z</time>
      </trkpt>
      <trkpt lat="48.71254" lon="-1.49933">
        <ele>34.26</ele>
        <time>2021-07-30T19:35:54Z</time>
      </trkpt>
      <trkpt lat="48.71254" lon="-1.49928">
        <ele>34.26</ele>
        <time>2021-07-30T19:35:55Z</time>
      </trkpt>
      <trkpt lat="48.71253" lon="-1.49918">
        <ele>34.74</ele>
        <time>2021-07-30T19:35:57Z</time>
      </trkpt>
      <trkpt lat="48.71235" lon="-1.49839">
        <ele>38.11</ele>
        <time>2021-07-30T19:36:06Z</time>
      </trkpt>
      <trkpt lat="48.71223" lon="-1.49797">
        <ele>40.03</ele>
        <time>2021-07-30T19:36:09Z</time>
      </trkpt>
      <trkpt lat="48.71219" lon="-1.49788">
        <ele>40.51</ele>
        <time>2021-07-30T19:36:10Z</time>
      </trkpt>
      <trkpt lat="48.71213" lon="-1.49775">
        <ele>40.03</ele>
        <time>2021-07-30T19:36:11Z</time>
      </trkpt>
      <trkpt lat="48.7118" lon="-1.49714">
        <ele>40.99</ele>
        <time>2021-07-30T19:36:17Z</time>
      </trkpt>
      <trkpt lat="48.71173" lon="-1.49707">
        <ele>41.47</ele>
        <time>2021-07-30T19:36:18Z</time>
      </trkpt>
      <trkpt lat="48.71167" lon="-1.49701">
        <ele>41.95</ele>
        <time>2021-07-30T19:36:19Z</time>
      </trkpt>
      <trkpt lat="48.71159" lon="-1.49696">
        <ele>42.44</ele>
        <time>2021-07-30T19:36:20Z</time>
      </trkpt>
      <trkpt lat="48.7115" lon="-1.49692">
        <ele>42.44</ele>
        <time>2021-07-30T19:36:21Z</time>
      </trkpt>
      <trkpt lat="48.71133" lon="-1.49687">
        <ele>42.92</ele>
        <time>2021-07-30T19:36:22Z</time>
      </trkpt>
      <trkpt lat="48.7111" lon="-1.49682">
        <ele>42.92</ele>
        <time>2021-07-30T19:36:25Z</time>
      </trkpt>
      <trkpt lat="48.7111" lon="-1.49682">
        <ele>42.92</ele>
        <time>2021-07-30T19:36:26Z</time>
      </trkpt>
      <trkpt lat="48.71094" lon="-1.49671">
        <ele>43.4</ele>
        <time>2021-07-30T19:36:27Z</time>
      </trkpt>
      <trkpt lat="48.71094" lon="-1.49671">
        <ele>43.88</ele>
        <time>2021-07-30T19:36:28Z</time>
      </trkpt>
      <trkpt lat="48.71085" lon="-1.49664">
        <ele>43.4</ele>
        <time>2021-07-30T19:36:29Z</time>
      </trkpt>
      <trkpt lat="48.71077" lon="-1.49656">
        <ele>43.88</ele>
        <time>2021-07-30T19:36:30Z</time>
      </trkpt>
      <trkpt lat="48.71068" lon="-1.49645">
        <ele>43.88</ele>
        <time>2021-07-30T19:36:31Z</time>
      </trkpt>
      <trkpt lat="48.71059" lon="-1.49635">
        <ele>43.88</ele>
        <time>2021-07-30T19:36:32Z</time>
      </trkpt>
      <trkpt lat="48.71052" lon="-1.49624">
        <ele>43.88</ele>
        <time>2021-07-30T19:36:33Z</time>
      </trkpt>
      <trkpt lat="48.70963" lon="-1.495">
        <ele>45.32</ele>
        <time>2021-07-30T19:36:44Z</time>
      </trkpt>
      <trkpt lat="48.70931" lon="-1.49462">
        <ele>47.24</ele>
        <time>2021-07-30T19:36:50Z</time>
      </trkpt>
      <trkpt lat="48.70881" lon="-1.49405">
        <ele>45.8</ele>
        <time>2021-07-30T19:36:58Z</time>
      </trkpt>
      <trkpt lat="48.70788" lon="-1.49315">
        <ele>45.32</ele>
        <time>2021-07-30T19:37:07Z</time>
      </trkpt>
      <trkpt lat="48.70645" lon="-1.49188">
        <ele>44.84</ele>
        <time>2021-07-30T19:37:20Z</time>
      </trkpt>
      <trkpt lat="48.70517" lon="-1.49047">
        <ele>33.78</ele>
        <time>2021-07-30T19:37:32Z</time>
      </trkpt>
      <trkpt lat="48.70293" lon="-1.48752">
        <ele>20.32</ele>
        <time>2021-07-30T19:37:51Z</time>
      </trkpt>
      <trkpt lat="48.7008" lon="-1.4846">
        <ele>13.12</ele>
        <time>2021-07-30T19:38:10Z</time>
      </trkpt>
      <trkpt lat="48.70046" lon="-1.48414">
        <ele>13.12</ele>
        <time>2021-07-30T19:38:13Z</time>
      </trkpt>
      <trkpt lat="48.70031" lon="-1.48403">
        <ele>13.6</ele>
        <time>2021-07-30T19:38:14Z</time>
      </trkpt>
      <trkpt lat="48.70017" lon="-1.48391">
        <ele>14.08</ele>
        <time>2021-07-30T19:38:15Z</time>
      </trkpt>
      <trkpt lat="48.70003" lon="-1.48382">
        <ele>14.08</ele>
        <time>2021-07-30T19:38:16Z</time>
      </trkpt>
      <trkpt lat="48.69987" lon="-1.4838">
        <ele>13.12</ele>
        <time>2021-07-30T19:38:17Z</time>
      </trkpt>
      <trkpt lat="48.69971" lon="-1.48379">
        <ele>12.63</ele>
        <time>2021-07-30T19:38:18Z</time>
      </trkpt>
      <trkpt lat="48.69956" lon="-1.48377">
        <ele>12.63</ele>
        <time>2021-07-30T19:38:19Z</time>
      </trkpt>
      <trkpt lat="48.69897" lon="-1.48367">
        <ele>13.6</ele>
        <time>2021-07-30T19:38:22Z</time>
      </trkpt>
      <trkpt lat="48.69884" lon="-1.48359">
        <ele>14.08</ele>
        <time>2021-07-30T19:38:23Z</time>
      </trkpt>
      <trkpt lat="48.69884" lon="-1.48359">
        <ele>14.56</ele>
        <time>2021-07-30T19:38:24Z</time>
      </trkpt>
      <trkpt lat="48.69871" lon="-1.48347">
        <ele>15.04</ele>
        <time>2021-07-30T19:38:25Z</time>
      </trkpt>
      <trkpt lat="48.69858" lon="-1.48335">
        <ele>16</ele>
        <time>2021-07-30T19:38:26Z</time>
      </trkpt>
      <trkpt lat="48.69846" lon="-1.48324">
        <ele>16.96</ele>
        <time>2021-07-30T19:38:27Z</time>
      </trkpt>
      <trkpt lat="48.69724" lon="-1.48236">
        <ele>16</ele>
        <time>2021-07-30T19:38:36Z</time>
      </trkpt>
      <trkpt lat="48.6957" lon="-1.48155">
        <ele>13.6</ele>
        <time>2021-07-30T19:38:46Z</time>
      </trkpt>
      <trkpt lat="48.69391" lon="-1.48086">
        <ele>14.56</ele>
        <time>2021-07-30T19:38:58Z</time>
      </trkpt>
      <trkpt lat="48.6923" lon="-1.48037">
        <ele>14.56</ele>
        <time>2021-07-30T19:39:08Z</time>
      </trkpt>
      <trkpt lat="48.69087" lon="-1.47998">
        <ele>16.48</ele>
        <time>2021-07-30T19:39:17Z</time>
      </trkpt>
      <trkpt lat="48.68987" lon="-1.47979">
        <ele>15.52</ele>
        <time>2021-07-30T19:39:25Z</time>
      </trkpt>
      <trkpt lat="48.68858" lon="-1.47967">
        <ele>11.67</ele>
        <time>2021-07-30T19:39:38Z</time>
      </trkpt>
      <trkpt lat="48.68774" lon="-1.47969">
        <ele>10.23</ele>
        <time>2021-07-30T19:39:49Z</time>
      </trkpt>
      <trkpt lat="48.68655" lon="-1.47989">
        <ele>9.75</ele>
        <time>2021-07-30T19:40:01Z</time>
      </trkpt>
      <trkpt lat="48.68584" lon="-1.47972">
        <ele>9.75</ele>
        <time>2021-07-30T19:40:11Z</time>
      </trkpt>
      <trkpt lat="48.68576" lon="-1.47967">
        <ele>10.71</ele>
        <time>2021-07-30T19:40:12Z</time>
      </trkpt>
      <trkpt lat="48.68561" lon="-1.4795">
        <ele>11.19</ele>
        <time>2021-07-30T19:40:13Z</time>
      </trkpt>
      <trkpt lat="48.6851" lon="-1.47884">
        <ele>6.87</ele>
        <time>2021-07-30T19:40:23Z</time>
      </trkpt>
      <trkpt lat="48.68492" lon="-1.47864">
        <ele>8.79</ele>
        <time>2021-07-30T19:40:30Z</time>
      </trkpt>
      <trkpt lat="48.68479" lon="-1.47848">
        <ele>9.75</ele>
        <time>2021-07-30T19:40:38Z</time>
      </trkpt>
      <trkpt lat="48.68471" lon="-1.47839">
        <ele>9.75</ele>
        <time>2021-07-30T19:40:40Z</time>
      </trkpt>
      <trkpt lat="48.6844" lon="-1.47802">
        <ele>10.23</ele>
        <time>2021-07-30T19:40:46Z</time>
      </trkpt>
      <trkpt lat="48.68436" lon="-1.47794">
        <ele>10.23</ele>
        <time>2021-07-30T19:40:47Z</time>
      </trkpt>
      <trkpt lat="48.68433" lon="-1.47786">
        <ele>10.23</ele>
        <time>2021-07-30T19:40:48Z</time>
      </trkpt>
      <trkpt lat="48.68431" lon="-1.47775">
        <ele>10.23</ele>
        <time>2021-07-30T19:40:49Z</time>
      </trkpt>
      <trkpt lat="48.68428" lon="-1.47764">
        <ele>10.23</ele>
        <time>2021-07-30T19:40:50Z</time>
      </trkpt>
      <trkpt lat="48.68426" lon="-1.47752">
        <ele>10.23</ele>
        <time>2021-07-30T19:40:51Z</time>
      </trkpt>
      <trkpt lat="48.68427" lon="-1.47739">
        <ele>10.23</ele>
        <time>2021-07-30T19:40:52Z</time>
      </trkpt>
      <trkpt lat="48.68428" lon="-1.47726">
        <ele>10.71</ele>
        <time>2021-07-30T19:40:53Z</time>
      </trkpt>
      <trkpt lat="48.68429" lon="-1.4771">
        <ele>10.71</ele>
        <time>2021-07-30T19:40:54Z</time>
      </trkpt>
      <trkpt lat="48.68446" lon="-1.47567">
        <ele>11.19</ele>
        <time>2021-07-30T19:41:06Z</time>
      </trkpt>
      <trkpt lat="48.68475" lon="-1.47394">
        <ele>10.71</ele>
        <time>2021-07-30T19:41:18Z</time>
      </trkpt>
      <trkpt lat="48.68496" lon="-1.47284">
        <ele>9.27</ele>
        <time>2021-07-30T19:41:25Z</time>
      </trkpt>
      <trkpt lat="48.68496" lon="-1.47284">
        <ele>9.27</ele>
        <time>2021-07-30T19:41:26Z</time>
      </trkpt>
      <trkpt lat="48.68496" lon="-1.47275">
        <ele>8.79</ele>
        <time>2021-07-30T19:41:27Z</time>
      </trkpt>
      <trkpt lat="48.68492" lon="-1.47266">
        <ele>8.79</ele>
        <time>2021-07-30T19:41:28Z</time>
      </trkpt>
      <trkpt lat="48.68488" lon="-1.47259">
        <ele>8.31</ele>
        <time>2021-07-30T19:41:29Z</time>
      </trkpt>
      <trkpt lat="48.68482" lon="-1.47253">
        <ele>7.83</ele>
        <time>2021-07-30T19:41:30Z</time>
      </trkpt>
      <trkpt lat="48.68445" lon="-1.47208">
        <ele>8.79</ele>
        <time>2021-07-30T19:41:36Z</time>
      </trkpt>
      <trkpt lat="48.68442" lon="-1.47198">
        <ele>8.79</ele>
        <time>2021-07-30T19:41:37Z</time>
      </trkpt>
      <trkpt lat="48.6844" lon="-1.47188">
        <ele>9.27</ele>
        <time>2021-07-30T19:41:38Z</time>
      </trkpt>
      <trkpt lat="48.68439" lon="-1.47178">
        <ele>9.27</ele>
        <time>2021-07-30T19:41:39Z</time>
      </trkpt>
      <trkpt lat="48.6844" lon="-1.47167">
        <ele>9.27</ele>
        <time>2021-07-30T19:41:40Z</time>
      </trkpt>
      <trkpt lat="48.68441" lon="-1.47154">
        <ele>9.27</ele>
        <time>2021-07-30T19:41:41Z</time>
      </trkpt>
      <trkpt lat="48.68443" lon="-1.47143">
        <ele>9.75</ele>
        <time>2021-07-30T19:41:42Z</time>
      </trkpt>
      <trkpt lat="48.68492" lon="-1.46982">
        <ele>10.71</ele>
        <time>2021-07-30T19:41:54Z</time>
      </trkpt>
      <trkpt lat="48.68529" lon="-1.46832">
        <ele>11.67</ele>
        <time>2021-07-30T19:42:07Z</time>
      </trkpt>
      <trkpt lat="48.68535" lon="-1.46807">
        <ele>12.15</ele>
        <time>2021-07-30T19:42:09Z</time>
      </trkpt>
      <trkpt lat="48.68541" lon="-1.46796">
        <ele>13.6</ele>
        <time>2021-07-30T19:42:10Z</time>
      </trkpt>
      <trkpt lat="48.68555" lon="-1.46773">
        <ele>13.6</ele>
        <time>2021-07-30T19:42:11Z</time>
      </trkpt>
      <trkpt lat="48.68555" lon="-1.46773">
        <ele>13.6</ele>
        <time>2021-07-30T19:42:12Z</time>
      </trkpt>
      <trkpt lat="48.68562" lon="-1.46763">
        <ele>13.6</ele>
        <time>2021-07-30T19:42:13Z</time>
      </trkpt>
      <trkpt lat="48.68571" lon="-1.46753">
        <ele>13.6</ele>
        <time>2021-07-30T19:42:14Z</time>
      </trkpt>
      <trkpt lat="48.68618" lon="-1.46697">
        <ele>14.08</ele>
        <time>2021-07-30T19:42:19Z</time>
      </trkpt>
      <trkpt lat="48.68625" lon="-1.46684">
        <ele>15.04</ele>
        <time>2021-07-30T19:42:20Z</time>
      </trkpt>
      <trkpt lat="48.68632" lon="-1.46671">
        <ele>15.52</ele>
        <time>2021-07-30T19:42:21Z</time>
      </trkpt>
      <trkpt lat="48.68639" lon="-1.46656">
        <ele>15.04</ele>
        <time>2021-07-30T19:42:22Z</time>
      </trkpt>
      <trkpt lat="48.6865" lon="-1.46623">
        <ele>15.52</ele>
        <time>2021-07-30T19:42:23Z</time>
      </trkpt>
      <trkpt lat="48.68654" lon="-1.46602">
        <ele>15.52</ele>
        <time>2021-07-30T19:42:24Z</time>
      </trkpt>
      <trkpt lat="48.68654" lon="-1.46602">
        <ele>15.52</ele>
        <time>2021-07-30T19:42:25Z</time>
      </trkpt>
      <trkpt lat="48.68701" lon="-1.4634">
        <ele>17.92</ele>
        <time>2021-07-30T19:42:38Z</time>
      </trkpt>
      <trkpt lat="48.68744" lon="-1.46115">
        <ele>20.32</ele>
        <time>2021-07-30T19:42:49Z</time>
      </trkpt>
      <trkpt lat="48.6879" lon="-1.45826">
        <ele>28.98</ele>
        <time>2021-07-30T19:43:02Z</time>
      </trkpt>
      <trkpt lat="48.68851" lon="-1.45548">
        <ele>33.3</ele>
        <time>2021-07-30T19:43:16Z</time>
      </trkpt>
      <trkpt lat="48.68924" lon="-1.45313">
        <ele>33.3</ele>
        <time>2021-07-30T19:43:26Z</time>
      </trkpt>
      <trkpt lat="48.68924" lon="-1.45313">
        <ele>33.3</ele>
        <time>2021-07-30T19:43:27Z</time>
      </trkpt>
      <trkpt lat="48.68926" lon="-1.45292">
        <ele>33.78</ele>
        <time>2021-07-30T19:43:28Z</time>
      </trkpt>
      <trkpt lat="48.68925" lon="-1.45273">
        <ele>33.78</ele>
        <time>2021-07-30T19:43:29Z</time>
      </trkpt>
      <trkpt lat="48.68921" lon="-1.4523">
        <ele>33.78</ele>
        <time>2021-07-30T19:43:30Z</time>
      </trkpt>
      <trkpt lat="48.6888" lon="-1.44936">
        <ele>34.74</ele>
        <time>2021-07-30T19:43:44Z</time>
      </trkpt>
      <trkpt lat="48.68872" lon="-1.44738">
        <ele>33.78</ele>
        <time>2021-07-30T19:43:52Z</time>
      </trkpt>
      <trkpt lat="48.68871" lon="-1.44717">
        <ele>34.26</ele>
        <time>2021-07-30T19:43:53Z</time>
      </trkpt>
      <trkpt lat="48.68871" lon="-1.44695">
        <ele>34.26</ele>
        <time>2021-07-30T19:43:54Z</time>
      </trkpt>
      <trkpt lat="48.68869" lon="-1.44674">
        <ele>33.3</ele>
        <time>2021-07-30T19:43:55Z</time>
      </trkpt>
      <trkpt lat="48.68858" lon="-1.44629">
        <ele>32.82</ele>
        <time>2021-07-30T19:43:56Z</time>
      </trkpt>
      <trkpt lat="48.68858" lon="-1.44629">
        <ele>33.78</ele>
        <time>2021-07-30T19:43:57Z</time>
      </trkpt>
      <trkpt lat="48.68835" lon="-1.4446">
        <ele>35.71</ele>
        <time>2021-07-30T19:44:05Z</time>
      </trkpt>
      <trkpt lat="48.68832" lon="-1.44161">
        <ele>39.55</ele>
        <time>2021-07-30T19:44:19Z</time>
      </trkpt>
      <trkpt lat="48.68807" lon="-1.43926">
        <ele>38.11</ele>
        <time>2021-07-30T19:44:29Z</time>
      </trkpt>
      <trkpt lat="48.68748" lon="-1.43694">
        <ele>37.15</ele>
        <time>2021-07-30T19:44:38Z</time>
      </trkpt>
      <trkpt lat="48.68712" lon="-1.43574">
        <ele>36.19</ele>
        <time>2021-07-30T19:44:44Z</time>
      </trkpt>
      <trkpt lat="48.68646" lon="-1.43386">
        <ele>35.23</ele>
        <time>2021-07-30T19:44:51Z</time>
      </trkpt>
      <trkpt lat="48.68535" lon="-1.42889">
        <ele>22.73</ele>
        <time>2021-07-30T19:45:13Z</time>
      </trkpt>
      <trkpt lat="48.68518" lon="-1.42806">
        <ele>23.69</ele>
        <time>2021-07-30T19:45:17Z</time>
      </trkpt>
      <trkpt lat="48.68518" lon="-1.42785">
        <ele>24.65</ele>
        <time>2021-07-30T19:45:18Z</time>
      </trkpt>
      <trkpt lat="48.68518" lon="-1.42765">
        <ele>25.61</ele>
        <time>2021-07-30T19:45:19Z</time>
      </trkpt>
      <trkpt lat="48.6852" lon="-1.42745">
        <ele>26.57</ele>
        <time>2021-07-30T19:45:20Z</time>
      </trkpt>
      <trkpt lat="48.68523" lon="-1.42725">
        <ele>28.5</ele>
        <time>2021-07-30T19:45:21Z</time>
      </trkpt>
      <trkpt lat="48.68547" lon="-1.42485">
        <ele>28.5</ele>
        <time>2021-07-30T19:45:32Z</time>
      </trkpt>
      <trkpt lat="48.68548" lon="-1.42415">
        <ele>27.05</ele>
        <time>2021-07-30T19:45:35Z</time>
      </trkpt>
      <trkpt lat="48.68543" lon="-1.42392">
        <ele>26.09</ele>
        <time>2021-07-30T19:45:36Z</time>
      </trkpt>
      <trkpt lat="48.68482" lon="-1.42164">
        <ele>20.81</ele>
        <time>2021-07-30T19:45:46Z</time>
      </trkpt>
      <trkpt lat="48.68354" lon="-1.41851">
        <ele>20.32</ele>
        <time>2021-07-30T19:46:01Z</time>
      </trkpt>
      <trkpt lat="48.68275" lon="-1.41613">
        <ele>26.57</ele>
        <time>2021-07-30T19:46:12Z</time>
      </trkpt>
      <trkpt lat="48.68236" lon="-1.41457">
        <ele>27.05</ele>
        <time>2021-07-30T19:46:21Z</time>
      </trkpt>
      <trkpt lat="48.68211" lon="-1.41363">
        <ele>26.09</ele>
        <time>2021-07-30T19:46:28Z</time>
      </trkpt>
      <trkpt lat="48.68173" lon="-1.4127">
        <ele>22.73</ele>
        <time>2021-07-30T19:46:38Z</time>
      </trkpt>
      <trkpt lat="48.68136" lon="-1.41145">
        <ele>17.44</ele>
        <time>2021-07-30T19:46:50Z</time>
      </trkpt>
      <trkpt lat="48.68105" lon="-1.40997">
        <ele>13.12</ele>
        <time>2021-07-30T19:47:01Z</time>
      </trkpt>
      <trkpt lat="48.6806" lon="-1.40784">
        <ele>9.27</ele>
        <time>2021-07-30T19:47:13Z</time>
      </trkpt>
      <trkpt lat="48.67997" lon="-1.40406">
        <ele>8.79</ele>
        <time>2021-07-30T19:47:32Z</time>
      </trkpt>
      <trkpt lat="48.67973" lon="-1.40127">
        <ele>10.71</ele>
        <time>2021-07-30T19:47:46Z</time>
      </trkpt>
      <trkpt lat="48.6798" lon="-1.39808">
        <ele>11.19</ele>
        <time>2021-07-30T19:48:01Z</time>
      </trkpt>
      <trkpt lat="48.68037" lon="-1.39468">
        <ele>10.23</ele>
        <time>2021-07-30T19:48:17Z</time>
      </trkpt>
      <trkpt lat="48.68085" lon="-1.39245">
        <ele>9.27</ele>
        <time>2021-07-30T19:48:29Z</time>
      </trkpt>
      <trkpt lat="48.68214" lon="-1.38849">
        <ele>10.71</ele>
        <time>2021-07-30T19:48:48Z</time>
      </trkpt>
      <trkpt lat="48.68245" lon="-1.38774">
        <ele>10.71</ele>
        <time>2021-07-30T19:48:53Z</time>
      </trkpt>
      <trkpt lat="48.68254" lon="-1.38757">
        <ele>10.71</ele>
        <time>2021-07-30T19:48:54Z</time>
      </trkpt>
      <trkpt lat="48.68282" lon="-1.38704">
        <ele>10.23</ele>
        <time>2021-07-30T19:48:57Z</time>
      </trkpt>
      <trkpt lat="48.6829" lon="-1.38684">
        <ele>10.71</ele>
        <time>2021-07-30T19:48:58Z</time>
      </trkpt>
      <trkpt lat="48.68298" lon="-1.38664">
        <ele>11.19</ele>
        <time>2021-07-30T19:48:59Z</time>
      </trkpt>
      <trkpt lat="48.68306" lon="-1.38644">
        <ele>12.15</ele>
        <time>2021-07-30T19:49:00Z</time>
      </trkpt>
      <trkpt lat="48.68313" lon="-1.38623">
        <ele>12.63</ele>
        <time>2021-07-30T19:49:01Z</time>
      </trkpt>
      <trkpt lat="48.68394" lon="-1.38421">
        <ele>16</ele>
        <time>2021-07-30T19:49:11Z</time>
      </trkpt>
      <trkpt lat="48.68613" lon="-1.38121">
        <ele>11.19</ele>
        <time>2021-07-30T19:49:29Z</time>
      </trkpt>
      <trkpt lat="48.68631" lon="-1.38096">
        <ele>11.19</ele>
        <time>2021-07-30T19:49:31Z</time>
      </trkpt>
      <trkpt lat="48.68641" lon="-1.38082">
        <ele>11.19</ele>
        <time>2021-07-30T19:49:32Z</time>
      </trkpt>
      <trkpt lat="48.68641" lon="-1.38082">
        <ele>11.19</ele>
        <time>2021-07-30T19:49:33Z</time>
      </trkpt>
      <trkpt lat="48.68644" lon="-1.38079">
        <ele>11.19</ele>
        <time>2021-07-30T19:49:34Z</time>
      </trkpt>
      <trkpt lat="48.68647" lon="-1.38077">
        <ele>10.71</ele>
        <time>2021-07-30T19:49:44Z</time>
      </trkpt>
      <trkpt lat="48.68651" lon="-1.38072">
        <ele>11.19</ele>
        <time>2021-07-30T19:55:28Z</time>
      </trkpt>
      <trkpt lat="48.68693" lon="-1.38039">
        <ele>11.19</ele>
        <time>2021-07-30T19:55:37Z</time>
      </trkpt>
      <trkpt lat="48.68801" lon="-1.37999">
        <ele>7.83</ele>
        <time>2021-07-30T19:55:48Z</time>
      </trkpt>
    </trkseg>
  </trk>
</gpx>